createdAt,value
2022-10-21T00:00:30.339Z,0.00
2022-10-21T00:01:30.357Z,0.00
2022-10-21T00:02:30.339Z,0.00
2022-10-21T00:03:30.295Z,0.00
2022-10-21T00:04:30.309Z,0.00
2022-10-21T00:05:30.302Z,0.00
2022-10-21T00:06:30.306Z,0.00
2022-10-21T00:07:30.239Z,0.00
2022-10-21T00:08:30.284Z,0.00
2022-10-21T00:09:30.218Z,0.00
2022-10-21T00:10:30.296Z,0.00
2022-10-21T00:11:30.191Z,0.00
2022-10-21T00:12:30.224Z,0.00
2022-10-21T00:13:30.170Z,0.00
2022-10-21T00:14:30.153Z,0.00
2022-10-21T00:15:30.119Z,0.00
2022-10-21T00:16:30.117Z,0.00
2022-10-21T00:17:30.120Z,0.00
2022-10-21T00:18:30.104Z,0.00
2022-10-21T00:19:30.116Z,0.00
2022-10-21T00:20:31.165Z,0.00
2022-10-21T00:21:30.063Z,0.00
2022-10-21T00:22:30.036Z,0.00
2022-10-21T00:23:30.053Z,0.00
2022-10-21T00:24:30.031Z,0.00
2022-10-21T00:25:30.037Z,0.00
2022-10-21T00:26:31.926Z,0.00
2022-10-21T00:27:29.967Z,0.00
2022-10-21T00:28:29.970Z,0.00
2022-10-21T00:29:29.991Z,0.00
2022-10-21T00:30:29.963Z,0.00
2022-10-21T00:31:29.927Z,0.00
2022-10-21T00:32:29.939Z,0.00
2022-10-21T00:33:29.910Z,0.00
2022-10-21T00:34:31.019Z,0.00
2022-10-21T00:35:29.866Z,0.00
2022-10-21T00:36:29.861Z,0.00
2022-10-21T00:37:29.841Z,0.00
2022-10-21T00:38:29.871Z,0.00
2022-10-21T00:39:29.827Z,0.00
2022-10-21T00:40:29.833Z,0.00
2022-10-21T00:41:30.010Z,0.00
2022-10-21T00:42:29.818Z,0.00
2022-10-21T00:43:29.769Z,0.00
2022-10-21T00:44:29.787Z,0.00
2022-10-21T00:45:29.754Z,0.00
2022-10-21T00:46:29.743Z,0.00
2022-10-21T00:47:29.750Z,0.00
2022-10-21T00:48:29.718Z,0.00
2022-10-21T00:49:29.682Z,0.00
2022-10-21T00:50:29.722Z,0.00
2022-10-21T00:51:29.656Z,0.00
2022-10-21T00:52:29.654Z,0.00
2022-10-21T00:53:29.638Z,0.00
2022-10-21T00:54:29.631Z,0.00
2022-10-21T00:55:29.655Z,0.00
2022-10-21T00:56:29.585Z,0.00
2022-10-21T00:57:29.604Z,0.00
2022-10-21T00:58:29.592Z,0.00
2022-10-21T00:59:29.559Z,0.00
2022-10-21T01:00:29.538Z,0.00
2022-10-21T01:01:29.595Z,0.00
2022-10-21T01:02:29.532Z,0.00
2022-10-21T01:03:29.516Z,0.00
2022-10-21T01:04:29.566Z,0.00
2022-10-21T01:05:29.468Z,0.00
2022-10-21T01:06:29.471Z,0.00
2022-10-21T01:07:29.448Z,0.00
2022-10-21T01:08:29.603Z,0.00
2022-10-21T01:09:29.408Z,0.00
2022-10-21T01:10:29.392Z,0.00
2022-10-21T01:11:29.392Z,0.00
2022-10-21T01:12:29.402Z,0.00
2022-10-21T01:13:29.379Z,0.00
2022-10-21T01:14:29.354Z,0.00
2022-10-21T01:15:29.341Z,0.00
2022-10-21T01:16:29.323Z,0.00
2022-10-21T01:17:45.791Z,0.00
2022-10-21T01:18:29.302Z,0.00
2022-10-21T01:19:29.294Z,0.00
2022-10-21T01:20:29.265Z,0.00
2022-10-21T01:21:29.285Z,0.00
2022-10-21T01:22:29.260Z,0.00
2022-10-21T01:23:29.230Z,0.00
2022-10-21T01:24:29.209Z,0.00
2022-10-21T01:25:29.228Z,0.00
2022-10-21T01:26:29.192Z,0.00
2022-10-21T01:27:29.219Z,0.00
2022-10-21T01:28:29.163Z,0.00
2022-10-21T01:29:29.151Z,0.00
2022-10-21T01:30:29.157Z,0.00
2022-10-21T01:31:29.121Z,0.00
2022-10-21T01:32:29.116Z,0.00
2022-10-21T01:33:29.114Z,0.00
2022-10-21T01:34:29.126Z,0.00
2022-10-21T01:35:29.074Z,0.00
2022-10-21T01:36:29.049Z,0.00
2022-10-21T01:37:29.077Z,0.00
2022-10-21T01:38:29.028Z,0.00
2022-10-21T01:39:29.053Z,0.00
2022-10-21T01:40:29.483Z,0.00
2022-10-21T01:41:29.004Z,0.00
2022-10-21T01:42:28.993Z,0.00
2022-10-21T01:43:28.972Z,0.00
2022-10-21T01:44:28.936Z,0.00
2022-10-21T01:45:28.932Z,0.00
2022-10-21T01:46:28.941Z,0.00
2022-10-21T01:47:28.950Z,0.00
2022-10-21T01:48:28.889Z,0.00
2022-10-21T01:49:28.888Z,0.00
2022-10-21T01:50:28.895Z,0.00
2022-10-21T01:51:28.875Z,0.00
2022-10-21T01:52:28.847Z,0.00
2022-10-21T01:53:28.837Z,0.00
2022-10-21T01:54:28.814Z,0.00
2022-10-21T01:55:28.847Z,0.00
2022-10-21T01:56:28.843Z,0.00
2022-10-21T01:57:28.793Z,0.00
2022-10-21T01:58:28.773Z,0.00
2022-10-21T01:59:28.758Z,0.00
2022-10-21T02:00:28.748Z,0.00
2022-10-21T02:01:28.792Z,0.00
2022-10-21T02:02:28.730Z,0.00
2022-10-21T02:03:28.713Z,0.00
2022-10-21T02:04:28.687Z,0.00
2022-10-21T02:05:28.687Z,0.00
2022-10-21T02:06:28.664Z,0.00
2022-10-21T02:07:28.658Z,0.00
2022-10-21T02:08:28.744Z,0.00
2022-10-21T02:09:28.690Z,0.00
2022-10-21T02:10:28.603Z,0.00
2022-10-21T02:11:28.600Z,0.00
2022-10-21T02:12:28.566Z,0.00
2022-10-21T02:13:28.557Z,0.00
2022-10-21T02:14:28.557Z,0.00
2022-10-21T02:15:28.538Z,0.00
2022-10-21T02:16:28.543Z,0.00
2022-10-21T02:17:28.518Z,0.00
2022-10-21T02:18:28.515Z,0.00
2022-10-21T02:19:28.564Z,0.00
2022-10-21T02:20:28.482Z,0.00
2022-10-21T02:21:28.448Z,0.00
2022-10-21T02:22:28.445Z,0.00
2022-10-21T02:23:28.432Z,0.00
2022-10-21T02:24:28.418Z,0.00
2022-10-21T02:25:28.446Z,0.00
2022-10-21T02:26:28.387Z,0.00
2022-10-21T02:27:28.386Z,0.00
2022-10-21T02:28:28.432Z,0.00
2022-10-21T02:29:28.379Z,0.00
2022-10-21T02:30:28.375Z,0.00
2022-10-21T02:31:28.341Z,0.00
2022-10-21T02:32:28.318Z,0.00
2022-10-21T02:33:28.297Z,0.00
2022-10-21T02:34:28.298Z,0.00
2022-10-21T02:35:28.280Z,0.00
2022-10-21T02:36:28.261Z,0.00
2022-10-21T02:37:28.322Z,0.00
2022-10-21T02:38:28.247Z,0.00
2022-10-21T02:39:28.228Z,0.00
2022-10-21T02:40:28.215Z,0.00
2022-10-21T02:41:28.231Z,0.00
2022-10-21T02:42:28.179Z,0.00
2022-10-21T02:43:28.174Z,0.00
2022-10-21T02:44:28.141Z,0.00
2022-10-21T02:45:28.191Z,0.00
2022-10-21T02:46:28.156Z,0.00
2022-10-21T02:47:28.101Z,0.00
2022-10-21T02:48:28.103Z,0.00
2022-10-21T02:49:28.083Z,0.00
2022-10-21T02:50:28.079Z,0.00
2022-10-21T02:51:28.083Z,0.00
2022-10-21T02:52:28.055Z,0.00
2022-10-21T02:53:28.040Z,0.00
2022-10-21T02:54:28.014Z,0.00
2022-10-21T02:55:28.012Z,0.00
2022-10-21T02:57:28.002Z,0.00
2022-10-21T02:58:27.979Z,0.00
2022-10-21T02:59:27.962Z,0.00
2022-10-21T03:00:32.061Z,0.00
2022-10-21T03:01:27.993Z,0.00
2022-10-21T03:02:27.901Z,0.00
2022-10-21T03:03:27.923Z,0.00
2022-10-21T03:04:27.914Z,0.00
2022-10-21T03:05:27.949Z,0.00
2022-10-21T03:06:27.869Z,0.00
2022-10-21T03:07:27.872Z,0.00
2022-10-21T03:08:27.855Z,0.00
2022-10-21T03:09:27.813Z,0.00
2022-10-21T03:10:27.784Z,0.00
2022-10-21T03:11:27.798Z,0.00
2022-10-21T03:12:27.794Z,0.00
2022-10-21T03:13:27.779Z,0.00
2022-10-21T03:14:27.759Z,0.00
2022-10-21T03:15:27.746Z,0.00
2022-10-21T03:16:27.727Z,0.00
2022-10-21T03:17:27.739Z,0.00
2022-10-21T03:18:27.714Z,0.00
2022-10-21T03:19:27.708Z,0.00
2022-10-21T03:20:27.662Z,0.00
2022-10-21T03:21:27.658Z,0.00
2022-10-21T03:22:27.658Z,0.00
2022-10-21T03:23:27.629Z,0.00
2022-10-21T03:24:29.002Z,0.00
2022-10-21T03:25:29.733Z,0.00
2022-10-21T03:26:27.598Z,0.00
2022-10-21T03:27:27.635Z,0.00
2022-10-21T03:28:27.560Z,0.00
2022-10-21T03:29:27.567Z,0.00
2022-10-21T03:30:27.534Z,0.00
2022-10-21T03:31:27.518Z,0.00
2022-10-21T03:32:27.562Z,0.00
2022-10-21T03:33:27.507Z,0.00
2022-10-21T03:34:27.468Z,0.00
2022-10-21T03:35:27.473Z,0.00
2022-10-21T03:36:27.480Z,0.00
2022-10-21T03:37:27.446Z,0.00
2022-10-21T03:38:27.439Z,0.00
2022-10-21T03:39:27.420Z,0.00
2022-10-21T03:40:27.406Z,0.00
2022-10-21T03:41:27.413Z,0.00
2022-10-21T03:42:27.368Z,0.00
2022-10-21T03:43:27.372Z,0.00
2022-10-21T03:44:27.342Z,0.00
2022-10-21T03:45:27.495Z,0.00
2022-10-21T03:46:27.323Z,0.00
2022-10-21T03:47:27.298Z,0.00
2022-10-21T03:48:27.322Z,0.00
2022-10-21T03:49:27.359Z,0.00
2022-10-21T03:50:27.294Z,0.00
2022-10-21T03:51:27.263Z,0.00
2022-10-21T03:52:27.246Z,0.00
2022-10-21T03:53:42.177Z,0.00
2022-10-21T03:54:27.235Z,0.00
2022-10-21T03:55:27.194Z,0.00
2022-10-21T03:56:27.200Z,0.00
2022-10-21T03:57:27.194Z,0.00
2022-10-21T03:58:27.172Z,0.00
2022-10-21T03:59:27.176Z,0.00
2022-10-21T04:00:29.511Z,0.00
2022-10-21T04:01:27.180Z,0.00
2022-10-21T04:02:27.110Z,0.00
2022-10-21T04:03:27.106Z,0.00
2022-10-21T04:04:27.091Z,0.00
2022-10-21T04:05:27.063Z,0.00
2022-10-21T04:06:27.073Z,0.00
2022-10-21T04:07:27.047Z,0.00
2022-10-21T04:08:27.023Z,0.00
2022-10-21T04:09:27.043Z,0.00
2022-10-21T04:10:27.010Z,0.00
2022-10-21T04:11:27.010Z,0.00
2022-10-21T04:12:26.982Z,0.00
2022-10-21T04:13:26.972Z,0.00
2022-10-21T04:14:26.931Z,0.00
2022-10-21T04:15:26.953Z,0.00
2022-10-21T04:16:26.924Z,0.00
2022-10-21T04:17:26.922Z,0.00
2022-10-21T04:18:26.898Z,0.00
2022-10-21T04:19:26.925Z,0.00
2022-10-21T04:20:26.904Z,0.00
2022-10-21T04:21:26.857Z,0.00
2022-10-21T04:22:26.855Z,0.00
2022-10-21T04:23:26.817Z,0.00
2022-10-21T04:24:26.804Z,0.00
2022-10-21T04:25:26.788Z,0.00
2022-10-21T04:26:26.797Z,0.00
2022-10-21T04:27:26.778Z,0.00
2022-10-21T04:28:26.762Z,0.00
2022-10-21T04:29:26.772Z,0.00
2022-10-21T04:30:26.722Z,0.00
2022-10-21T04:31:31.233Z,0.00
2022-10-21T04:32:26.730Z,0.00
2022-10-21T04:33:26.722Z,0.00
2022-10-21T04:34:26.669Z,0.00
2022-10-21T04:35:26.670Z,0.00
2022-10-21T04:36:26.666Z,0.00
2022-10-21T04:37:26.660Z,0.00
2022-10-21T04:38:26.623Z,0.00
2022-10-21T04:39:26.643Z,0.00
2022-10-21T04:40:26.593Z,0.00
2022-10-21T04:41:26.609Z,0.00
2022-10-21T04:43:26.559Z,0.00
2022-10-21T04:44:26.561Z,0.00
2022-10-21T04:45:26.557Z,0.00
2022-10-21T04:46:26.517Z,0.00
2022-10-21T04:47:26.509Z,0.00
2022-10-21T04:48:26.519Z,0.00
2022-10-21T04:49:26.505Z,0.00
2022-10-21T04:50:26.481Z,0.00
2022-10-21T04:51:26.481Z,0.00
2022-10-21T04:52:26.434Z,0.00
2022-10-21T04:53:26.442Z,0.00
2022-10-21T04:54:26.420Z,0.00
2022-10-21T04:55:26.441Z,0.00
2022-10-21T04:56:26.384Z,0.00
2022-10-21T04:57:26.441Z,0.00
2022-10-21T04:58:26.357Z,0.00
2022-10-21T04:59:26.381Z,0.00
2022-10-21T05:00:26.324Z,0.00
2022-10-21T05:01:26.404Z,0.00
2022-10-21T05:02:26.299Z,0.00
2022-10-21T05:03:26.315Z,0.00
2022-10-21T05:04:26.295Z,0.00
2022-10-21T05:05:26.263Z,0.00
2022-10-21T05:06:26.235Z,0.00
2022-10-21T05:07:26.231Z,0.00
2022-10-21T05:08:26.254Z,0.00
2022-10-21T05:09:26.241Z,0.00
2022-10-21T05:10:26.190Z,0.00
2022-10-21T05:11:26.165Z,0.00
2022-10-21T05:12:26.215Z,0.00
2022-10-21T05:13:26.163Z,0.00
2022-10-21T05:14:26.166Z,0.00
2022-10-21T05:15:26.127Z,0.00
2022-10-21T05:16:26.135Z,0.00
2022-10-21T05:17:26.103Z,0.00
2022-10-21T05:18:26.122Z,0.00
2022-10-21T05:19:30.358Z,0.00
2022-10-21T05:20:26.058Z,0.00
2022-10-21T05:21:26.065Z,0.00
2022-10-21T05:22:26.037Z,0.00
2022-10-21T05:23:26.012Z,0.00
2022-10-21T05:24:26.038Z,0.00
2022-10-21T05:25:26.002Z,0.00
2022-10-21T05:26:25.982Z,0.00
2022-10-21T05:27:25.959Z,0.00
2022-10-21T05:28:25.949Z,0.00
2022-10-21T05:29:25.959Z,0.00
2022-10-21T05:30:25.941Z,0.00
2022-10-21T05:31:25.983Z,0.00
2022-10-21T05:32:25.892Z,0.00
2022-10-21T05:33:25.952Z,0.00
2022-10-21T05:34:25.872Z,0.00
2022-10-21T05:35:25.851Z,0.00
2022-10-21T05:36:25.858Z,0.00
2022-10-21T05:37:25.823Z,0.00
2022-10-21T05:38:25.859Z,0.00
2022-10-21T05:39:25.827Z,0.00
2022-10-21T05:40:25.789Z,0.00
2022-10-21T05:41:25.792Z,0.00
2022-10-21T05:42:25.796Z,0.00
2022-10-21T05:43:25.767Z,0.00
2022-10-21T05:44:25.739Z,0.00
2022-10-21T05:45:25.736Z,0.00
2022-10-21T05:46:25.723Z,0.00
2022-10-21T05:47:25.740Z,0.00
2022-10-21T05:48:25.736Z,0.00
2022-10-21T05:49:25.727Z,0.00
2022-10-21T05:50:25.681Z,0.00
2022-10-21T05:51:25.645Z,0.00
2022-10-21T05:52:25.696Z,0.00
2022-10-21T05:53:25.621Z,0.00
2022-10-21T05:54:25.610Z,0.00
2022-10-21T05:55:25.603Z,0.00
2022-10-21T05:56:25.628Z,0.00
2022-10-21T05:57:25.573Z,0.00
2022-10-21T05:58:25.563Z,0.00
2022-10-21T05:59:25.561Z,0.00
2022-10-21T06:00:25.542Z,0.00
2022-10-21T06:01:25.568Z,0.00
2022-10-21T06:02:25.533Z,0.00
2022-10-21T06:03:25.487Z,0.00
2022-10-21T06:04:25.491Z,0.00
2022-10-21T06:05:25.447Z,0.00
2022-10-21T06:06:25.457Z,0.00
2022-10-21T06:07:25.459Z,0.00
2022-10-21T06:08:25.454Z,0.00
2022-10-21T06:09:25.439Z,0.00
2022-10-21T06:10:28.253Z,4.00
2022-10-21T06:11:25.378Z,4.00
2022-10-21T06:12:25.385Z,4.00
2022-10-21T06:13:25.360Z,0.00
2022-10-21T06:14:25.332Z,0.00
2022-10-21T06:15:25.321Z,0.00
2022-10-21T06:16:25.341Z,0.00
2022-10-21T06:17:25.297Z,0.00
2022-10-21T06:18:25.330Z,0.00
2022-10-21T06:19:25.300Z,0.00
2022-10-21T06:20:25.264Z,4.00
2022-10-21T06:21:25.228Z,4.00
2022-10-21T06:22:25.333Z,0.00
2022-10-21T06:23:25.209Z,0.00
2022-10-21T06:24:25.237Z,0.00
2022-10-21T06:25:25.227Z,4.00
2022-10-21T06:26:25.199Z,4.00
2022-10-21T06:27:25.176Z,4.00
2022-10-21T06:28:25.188Z,4.00
2022-10-21T06:29:25.124Z,4.00
2022-10-21T06:30:25.149Z,4.00
2022-10-21T06:31:25.109Z,4.00
2022-10-21T06:32:25.114Z,4.00
2022-10-21T06:33:27.028Z,0.00
2022-10-21T06:34:25.149Z,0.00
2022-10-21T06:35:25.046Z,0.00
2022-10-21T06:36:25.042Z,4.00
2022-10-21T06:37:25.042Z,4.00
2022-10-21T06:38:25.022Z,4.00
2022-10-21T06:39:25.188Z,4.00
2022-10-21T06:40:24.989Z,4.00
2022-10-21T06:41:24.977Z,4.00
2022-10-21T06:42:24.974Z,4.00
2022-10-21T06:43:24.961Z,4.00
2022-10-21T06:44:24.985Z,4.00
2022-10-21T06:45:24.942Z,4.00
2022-10-21T06:46:24.920Z,4.00
2022-10-21T06:47:24.948Z,4.00
2022-10-21T06:48:24.893Z,4.00
2022-10-21T06:49:24.889Z,4.00
2022-10-21T06:50:24.859Z,4.00
2022-10-21T06:51:24.862Z,4.00
2022-10-21T06:53:24.813Z,8.00
2022-10-21T06:54:24.837Z,8.00
2022-10-21T06:55:24.778Z,8.00
2022-10-21T06:56:24.815Z,8.00
2022-10-21T06:57:24.759Z,8.00
2022-10-21T06:58:24.773Z,8.00
2022-10-21T06:59:24.751Z,12.00
2022-10-21T07:00:24.752Z,8.00
2022-10-21T07:01:34.427Z,12.00
2022-10-21T07:02:24.740Z,12.00
2022-10-21T07:03:24.678Z,16.00
2022-10-21T07:04:24.692Z,12.00
2022-10-21T07:05:24.649Z,16.00
2022-10-21T07:06:24.686Z,16.00
2022-10-21T07:07:24.644Z,16.00
2022-10-21T07:08:39.776Z,16.00
2022-10-21T07:09:24.692Z,16.00
2022-10-21T07:10:24.665Z,16.00
2022-10-21T07:11:24.565Z,20.00
2022-10-21T07:12:24.605Z,20.00
2022-10-21T07:13:25.962Z,20.00
2022-10-21T07:14:24.555Z,20.00
2022-10-21T07:15:24.539Z,20.00
2022-10-21T07:16:24.516Z,20.00
2022-10-21T07:17:24.484Z,20.00
2022-10-21T07:18:24.507Z,16.00
2022-10-21T07:19:24.474Z,16.00
2022-10-21T07:20:24.536Z,16.00
2022-10-21T07:21:24.440Z,12.00
2022-10-21T07:22:24.433Z,16.00
2022-10-21T07:23:24.536Z,16.00
2022-10-21T07:24:24.425Z,16.00
2022-10-21T07:25:24.417Z,16.00
2022-10-21T07:26:24.395Z,16.00
2022-10-21T07:27:24.365Z,16.00
2022-10-21T07:28:24.389Z,20.00
2022-10-21T07:29:24.396Z,20.00
2022-10-21T07:30:24.374Z,24.00
2022-10-21T07:31:24.328Z,20.00
2022-10-21T07:32:24.289Z,20.00
2022-10-21T07:33:24.300Z,20.00
2022-10-21T07:34:24.271Z,20.00
2022-10-21T07:35:24.292Z,16.00
2022-10-21T07:36:24.273Z,20.00
2022-10-21T07:37:24.231Z,16.00
2022-10-21T07:38:24.208Z,16.00
2022-10-21T07:39:24.249Z,16.00
2022-10-21T07:40:24.250Z,12.00
2022-10-21T07:41:24.160Z,12.00
2022-10-21T07:42:24.179Z,16.00
2022-10-21T07:43:24.150Z,16.00
2022-10-21T07:44:24.198Z,16.00
2022-10-21T07:45:24.176Z,16.00
2022-10-21T07:46:24.106Z,16.00
2022-10-21T07:47:24.310Z,16.00
2022-10-21T07:48:24.073Z,16.00
2022-10-21T07:49:24.069Z,12.00
2022-10-21T07:50:24.063Z,12.00
2022-10-21T07:51:28.391Z,12.00
2022-10-21T07:52:24.037Z,12.00
2022-10-21T07:53:24.035Z,12.00
2022-10-21T07:54:24.014Z,8.00
2022-10-21T07:55:23.992Z,12.00
2022-10-21T07:56:23.992Z,12.00
2022-10-21T07:57:23.992Z,12.00
2022-10-21T07:58:23.954Z,12.00
2022-10-21T07:59:23.918Z,16.00
2022-10-21T08:00:23.932Z,16.00
2022-10-21T08:01:23.994Z,12.00
2022-10-21T08:02:23.925Z,12.00
2022-10-21T08:03:23.896Z,12.00
2022-10-21T08:04:23.900Z,12.00
2022-10-21T08:05:23.861Z,16.00
2022-10-21T08:06:23.853Z,12.00
2022-10-21T08:07:23.830Z,12.00
2022-10-21T08:08:23.846Z,12.00
2022-10-21T08:09:23.815Z,12.00
2022-10-21T08:10:23.782Z,12.00
2022-10-21T08:11:23.811Z,12.00
2022-10-21T08:12:23.770Z,12.00
2022-10-21T08:13:23.766Z,12.00
2022-10-21T08:14:23.772Z,12.00
2022-10-21T08:15:23.771Z,12.00
2022-10-21T08:16:23.782Z,12.00
2022-10-21T08:17:23.713Z,12.00
2022-10-21T08:18:23.700Z,12.00
2022-10-21T08:19:23.673Z,8.00
2022-10-21T08:20:23.808Z,8.00
2022-10-21T08:21:23.642Z,12.00
2022-10-21T08:22:23.653Z,16.00
2022-10-21T08:23:23.618Z,16.00
2022-10-21T08:24:23.604Z,16.00
2022-10-21T08:25:23.611Z,16.00
2022-10-21T08:26:23.618Z,20.00
2022-10-21T08:27:23.563Z,16.00
2022-10-21T08:28:23.572Z,24.00
2022-10-21T08:29:23.543Z,24.00
2022-10-21T08:30:23.563Z,20.00
2022-10-21T08:31:23.516Z,16.00
2022-10-21T08:32:23.530Z,16.00
2022-10-21T08:33:23.517Z,16.00
2022-10-21T08:34:23.505Z,16.00
2022-10-21T08:35:23.480Z,20.00
2022-10-21T08:36:23.453Z,16.00
2022-10-21T08:37:25.617Z,24.00
2022-10-21T08:38:23.424Z,32.00
2022-10-21T08:39:23.416Z,28.00
2022-10-21T08:40:23.406Z,28.00
2022-10-21T08:41:23.394Z,24.00
2022-10-21T08:42:23.425Z,24.00
2022-10-21T08:43:23.389Z,20.00
2022-10-21T08:44:23.352Z,20.00
2022-10-21T08:45:23.361Z,20.00
2022-10-21T08:46:23.315Z,20.00
2022-10-21T08:47:23.293Z,20.00
2022-10-21T08:48:23.290Z,24.00
2022-10-21T08:49:25.138Z,24.00
2022-10-21T08:50:23.266Z,16.00
2022-10-21T08:51:23.250Z,20.00
2022-10-21T08:52:23.231Z,16.00
2022-10-21T08:53:23.204Z,16.00
2022-10-21T08:54:23.232Z,20.00
2022-10-21T08:55:23.194Z,24.00
2022-10-21T08:57:23.178Z,24.00
2022-10-21T08:58:23.146Z,32.00
2022-10-21T08:59:23.156Z,28.00
2022-10-21T09:00:23.141Z,32.00
2022-10-21T09:01:23.144Z,32.00
2022-10-21T09:02:23.102Z,36.00
2022-10-21T09:03:23.135Z,40.00
2022-10-21T09:04:23.138Z,36.00
2022-10-21T09:05:23.111Z,40.00
2022-10-21T09:06:23.086Z,40.00
2022-10-21T09:07:23.069Z,44.00
2022-10-21T09:08:23.015Z,44.00
2022-10-21T09:09:23.041Z,44.00
2022-10-21T09:10:23.019Z,52.00
2022-10-21T09:11:22.978Z,48.00
2022-10-21T09:12:22.965Z,56.00
2022-10-21T09:13:22.970Z,56.00
2022-10-21T09:14:22.996Z,56.00
2022-10-21T09:15:22.936Z,60.00
2022-10-21T09:16:22.930Z,56.00
2022-10-21T09:17:22.907Z,56.00
2022-10-21T09:18:22.898Z,56.00
2022-10-21T09:19:22.898Z,52.00
2022-10-21T09:20:22.872Z,48.00
2022-10-21T09:21:22.855Z,48.00
2022-10-21T09:22:34.848Z,44.00
2022-10-21T09:23:22.889Z,44.00
2022-10-21T09:24:22.806Z,52.00
2022-10-21T09:25:22.791Z,48.00
2022-10-21T09:26:26.513Z,48.00
2022-10-21T09:27:31.901Z,48.00
2022-10-21T09:28:22.833Z,44.00
2022-10-21T09:29:22.775Z,44.00
2022-10-21T09:30:23.078Z,52.00
2022-10-21T09:31:22.743Z,60.00
2022-10-21T09:32:22.766Z,56.00
2022-10-21T09:33:22.716Z,56.00
2022-10-21T09:34:22.679Z,60.00
2022-10-21T09:35:22.681Z,64.00
2022-10-21T09:36:22.679Z,60.00
2022-10-21T09:37:22.698Z,56.00
2022-10-21T09:38:22.622Z,52.00
2022-10-21T09:39:22.655Z,44.00
2022-10-21T09:40:22.591Z,48.00
2022-10-21T09:42:45.802Z,56.00
2022-10-21T09:43:22.592Z,48.00
2022-10-21T09:44:22.561Z,40.00
2022-10-21T09:45:22.525Z,52.00
2022-10-21T09:46:22.536Z,52.00
2022-10-21T09:47:22.505Z,48.00
2022-10-21T09:48:22.489Z,56.00
2022-10-21T09:49:47.838Z,60.00
2022-10-21T09:50:22.511Z,68.00
2022-10-21T09:51:23.338Z,72.00
2022-10-21T09:52:22.456Z,72.00
2022-10-21T09:53:25.582Z,64.00
2022-10-21T09:54:22.425Z,60.00
2022-10-21T09:55:22.496Z,60.00
2022-10-21T09:56:22.379Z,64.00
2022-10-21T09:57:22.394Z,68.00
2022-10-21T09:58:22.372Z,68.00
2022-10-21T09:59:22.371Z,68.00
2022-10-21T10:00:22.369Z,76.00
2022-10-21T10:01:22.339Z,84.00
2022-10-21T10:02:22.305Z,88.00
2022-10-21T10:03:22.327Z,88.00
2022-10-21T10:04:22.308Z,76.00
2022-10-21T10:05:22.308Z,64.00
2022-10-21T10:06:22.256Z,60.00
2022-10-21T10:07:22.236Z,60.00
2022-10-21T10:08:22.313Z,68.00
2022-10-21T10:09:22.221Z,68.00
2022-10-21T10:10:22.223Z,72.00
2022-10-21T10:11:22.195Z,80.00
2022-10-21T10:12:22.223Z,76.00
2022-10-21T10:13:22.162Z,76.00
2022-10-21T10:14:22.137Z,72.00
2022-10-21T10:15:22.134Z,76.00
2022-10-21T10:16:22.157Z,68.00
2022-10-21T10:17:22.131Z,80.00
2022-10-21T10:18:22.166Z,76.00
2022-10-21T10:19:22.201Z,84.00
2022-10-21T10:20:22.075Z,80.00
2022-10-21T10:21:22.085Z,80.00
2022-10-21T10:22:22.045Z,84.00
2022-10-21T10:23:22.048Z,96.00
2022-10-21T10:24:22.035Z,112.00
2022-10-21T10:25:22.021Z,120.00
2022-10-21T10:26:21.985Z,124.00
2022-10-21T10:27:21.986Z,132.00
2022-10-21T10:28:21.984Z,128.00
2022-10-21T10:29:21.964Z,124.00
2022-10-21T10:30:21.936Z,116.00
2022-10-21T10:31:21.929Z,108.00
2022-10-21T10:32:21.929Z,100.00
2022-10-21T10:33:21.887Z,100.00
2022-10-21T10:34:21.955Z,100.00
2022-10-21T10:35:21.855Z,100.00
2022-10-21T10:36:21.867Z,104.00
2022-10-21T10:37:21.867Z,104.00
2022-10-21T10:38:21.828Z,108.00
2022-10-21T10:39:21.835Z,96.00
2022-10-21T10:40:21.802Z,96.00
2022-10-21T10:41:21.773Z,84.00
2022-10-21T10:42:21.771Z,84.00
2022-10-21T10:43:21.776Z,84.00
2022-10-21T10:44:21.762Z,84.00
2022-10-21T10:45:21.731Z,88.00
2022-10-21T10:46:21.724Z,88.00
2022-10-21T10:47:21.726Z,92.00
2022-10-21T10:48:21.693Z,92.00
2022-10-21T10:49:21.702Z,96.00
2022-10-21T10:50:21.671Z,100.00
2022-10-21T10:51:21.633Z,104.00
2022-10-21T10:52:21.648Z,104.00
2022-10-21T10:53:21.652Z,104.00
2022-10-21T10:54:21.618Z,104.00
2022-10-21T10:55:21.650Z,100.00
2022-10-21T10:56:21.600Z,104.00
2022-10-21T10:57:26.536Z,104.00
2022-10-21T10:58:24.198Z,100.00
2022-10-21T10:59:21.551Z,104.00
2022-10-21T11:00:21.523Z,112.00
2022-10-21T11:01:21.570Z,112.00
2022-10-21T11:02:21.496Z,112.00
2022-10-21T11:03:25.847Z,116.00
2022-10-21T11:04:21.487Z,124.00
2022-10-21T11:05:21.473Z,132.00
2022-10-21T11:06:21.443Z,128.00
2022-10-21T11:07:21.469Z,132.00
2022-10-21T11:08:21.426Z,128.00
2022-10-21T11:09:23.826Z,132.00
2022-10-21T11:10:21.416Z,132.00
2022-10-21T11:11:21.382Z,132.00
2022-10-21T11:12:21.387Z,136.00
2022-10-21T11:13:21.392Z,128.00
2022-10-21T11:14:22.679Z,128.00
2022-10-21T11:15:21.327Z,128.00
2022-10-21T11:16:21.363Z,128.00
2022-10-21T11:17:21.302Z,128.00
2022-10-21T11:18:25.166Z,124.00
2022-10-21T11:19:21.280Z,120.00
2022-10-21T11:20:21.284Z,116.00
2022-10-21T11:21:21.261Z,116.00
2022-10-21T11:22:21.234Z,116.00
2022-10-21T11:23:21.319Z,112.00
2022-10-21T11:24:21.210Z,108.00
2022-10-21T11:25:21.208Z,112.00
2022-10-21T11:26:21.197Z,108.00
2022-10-21T11:27:21.167Z,108.00
2022-10-21T11:28:21.154Z,108.00
2022-10-21T11:29:21.179Z,108.00
2022-10-21T11:30:21.150Z,108.00
2022-10-21T11:31:21.141Z,108.00
2022-10-21T11:32:21.147Z,108.00
2022-10-21T11:33:21.128Z,108.00
2022-10-21T11:34:21.091Z,112.00
2022-10-21T11:35:21.113Z,112.00
2022-10-21T11:36:21.041Z,112.00
2022-10-21T11:37:21.043Z,112.00
2022-10-21T11:38:21.025Z,116.00
2022-10-21T11:39:21.671Z,120.00
2022-10-21T11:40:21.048Z,120.00
2022-10-21T11:41:22.994Z,124.00
2022-10-21T11:42:20.984Z,128.00
2022-10-21T11:43:20.947Z,136.00
2022-10-21T11:44:20.946Z,132.00
2022-10-21T11:45:20.959Z,124.00
2022-10-21T11:46:20.927Z,116.00
2022-10-21T11:47:20.919Z,112.00
2022-10-21T11:48:20.888Z,116.00
2022-10-21T11:49:20.864Z,112.00
2022-10-21T11:51:20.872Z,104.00
2022-10-21T11:52:20.892Z,100.00
2022-10-21T11:53:20.829Z,96.00
2022-10-21T11:54:20.808Z,96.00
2022-10-21T11:55:20.810Z,100.00
2022-10-21T11:56:20.832Z,104.00
2022-10-21T11:57:20.814Z,104.00
2022-10-21T11:58:20.780Z,108.00
2022-10-21T11:59:20.845Z,104.00
2022-10-21T12:00:20.752Z,100.00
2022-10-21T12:01:20.732Z,96.00
2022-10-21T12:02:20.759Z,96.00
2022-10-21T12:03:20.716Z,92.00
2022-10-21T12:04:20.687Z,96.00
2022-10-21T12:05:20.650Z,100.00
2022-10-21T12:06:20.659Z,108.00
2022-10-21T12:07:20.687Z,108.00
2022-10-21T12:08:20.694Z,112.00
2022-10-21T12:09:20.620Z,116.00
2022-10-21T12:10:20.620Z,112.00
2022-10-21T12:11:20.589Z,112.00
2022-10-21T12:12:20.580Z,112.00
2022-10-21T12:13:20.572Z,112.00
2022-10-21T12:14:20.540Z,112.00
2022-10-21T12:15:20.546Z,108.00
2022-10-21T12:16:20.513Z,108.00
2022-10-21T12:17:20.501Z,108.00
2022-10-21T12:18:20.522Z,104.00
2022-10-21T12:19:20.498Z,108.00
2022-10-21T12:20:23.708Z,108.00
2022-10-21T12:21:20.437Z,108.00
2022-10-21T12:22:20.503Z,104.00
2022-10-21T12:23:20.450Z,108.00
2022-10-21T12:24:20.418Z,112.00
2022-10-21T12:25:20.409Z,112.00
2022-10-21T12:26:20.387Z,116.00
2022-10-21T12:27:20.367Z,116.00
2022-10-21T12:28:20.387Z,116.00
2022-10-21T12:29:20.378Z,120.00
2022-10-21T12:30:23.454Z,120.00
2022-10-21T12:31:20.337Z,124.00
2022-10-21T12:32:20.299Z,116.00
2022-10-21T12:33:20.310Z,120.00
2022-10-21T12:34:20.280Z,120.00
2022-10-21T12:35:20.294Z,116.00
2022-10-21T12:36:20.266Z,124.00
2022-10-21T12:37:20.244Z,124.00
2022-10-21T12:38:20.234Z,120.00
2022-10-21T12:39:20.197Z,124.00
2022-10-21T12:40:20.221Z,124.00
2022-10-21T12:41:20.179Z,120.00
2022-10-21T12:42:20.164Z,120.00
2022-10-21T12:43:20.182Z,124.00
2022-10-21T12:44:20.138Z,120.00
2022-10-21T12:45:20.170Z,120.00
2022-10-21T12:46:20.125Z,116.00
2022-10-21T12:47:20.086Z,116.00
2022-10-21T12:48:20.112Z,120.00
2022-10-21T12:49:20.066Z,120.00
2022-10-21T12:50:20.095Z,108.00
2022-10-21T12:51:20.046Z,104.00
2022-10-21T12:52:20.076Z,104.00
2022-10-21T12:53:20.017Z,104.00
2022-10-21T12:54:20.048Z,96.00
2022-10-21T12:55:20.164Z,92.00
2022-10-21T12:56:20.069Z,88.00
2022-10-21T12:57:19.952Z,84.00
2022-10-21T12:58:19.955Z,84.00
2022-10-21T12:59:19.960Z,88.00
2022-10-21T13:00:19.964Z,92.00
2022-10-21T13:01:20.193Z,96.00
2022-10-21T13:02:19.897Z,96.00
2022-10-21T13:03:20.268Z,100.00
2022-10-21T13:04:19.879Z,92.00
2022-10-21T13:05:19.890Z,96.00
2022-10-21T13:06:19.836Z,96.00
2022-10-21T13:07:19.821Z,92.00